Time;durP1;ratioP1;P1;durP2;ratioP2;P2;SDS_P1;SDS_P2;PMS_P1;PMS_P2;Temp;Humidity;BMP_temperature;BMP_pressure;BME280_temperature;BME280_humidity;BME280_pressure;Samples;Min_cycle;Max_cycle;Signal;HPM_P1;HPM_P2
2022/07/07 00:01:46;;;;;;;3.67;1.42;;;;;;;21.46;53.09;102017.88;5215222;28;20527;-43
2022/07/07 00:04:20;;;;;;;6.32;1.65;;;;;;;21.47;52.75;102020.38;5215224;28;20411;-42
2022/07/07 00:06:53;;;;;;;5.25;1.98;;;;;;;21.48;52.48;102013.16;5219559;28;20450;-42
2022/07/07 00:09:27;;;;;;;6.18;2.10;;;;;;;21.44;52.56;102011.88;5215349;28;20753;-43
2022/07/07 00:12:00;;;;;;;9.23;1.70;;;;;;;21.44;52.52;102020.78;5212269;28;20420;-44
2022/07/07 00:14:35;;;;;;;3.20;1.52;;;;;;;21.41;52.37;102010.41;5216733;28;20411;-42
2022/07/07 00:17:08;;;;;;;8.70;1.98;;;;;;;21.41;52.22;102018.47;5215056;28;20506;-42
2022/07/07 00:19:41;;;;;;;8.17;1.90;;;;;;;21.41;52.10;102021.16;5218244;28;20437;-43
2022/07/07 00:22:15;;;;;;;7.13;2.17;;;;;;;21.29;52.08;102022.66;5216484;28;20897;-41
2022/07/07 00:24:47;;;;;;;7.22;2.08;;;;;;;21.26;51.95;102026.56;5211956;28;20426;-46
2022/07/07 00:27:20;;;;;;;7.22;1.90;;;;;;;21.23;51.99;102026.94;5216769;28;20462;-43
2022/07/07 00:29:54;;;;;;;6.47;1.60;;;;;;;20.64;51.88;101930.47;5212984;28;20891;-44
2022/07/07 00:32:27;;;;;;;4.00;1.40;;;;;;;21.15;51.97;102027.91;5217471;28;20452;-39
2022/07/07 00:35:00;;;;;;;9.05;1.70;;;;;;;21.07;52.05;102029.88;5212474;28;20447;-43
2022/07/07 00:37:32;;;;;;;7.40;1.77;;;;;;;20.95;51.92;102013.41;5212472;28;20490;-45
2022/07/07 00:40:07;;;;;;;8.43;1.83;;;;;;;20.90;52.01;102014.00;5213336;28;20415;-41
2022/07/07 00:42:40;;;;;;;4.60;1.52;;;;;;;20.29;52.21;101924.88;5210582;28;20504;-43
2022/07/07 00:45:15;;;;;;;3.40;1.77;;;;;;;20.80;52.36;102012.63;5212278;28;20920;-40
2022/07/07 00:47:48;;;;;;;5.30;1.70;;;;;;;20.73;52.61;102013.38;5217443;28;20450;-40
2022/07/07 00:50:21;;;;;;;6.93;1.80;;;;;;;20.63;52.89;102007.50;5211109;28;20433;-42
2022/07/07 00:52:54;;;;;;;4.60;1.92;;;;;;;20.60;53.13;102013.22;5218915;28;20407;-40
2022/07/07 00:55:27;;;;;;;3.67;1.95;;;;;;;20.48;53.10;101993.22;5209484;28;20948;-40
2022/07/07 00:58:00;;;;;;;6.60;1.80;;;;;;;20.51;53.73;102008.94;5212227;28;20519;-39
2022/07/07 01:00:34;;;;;;;3.25;1.50;;;;;;;20.47;53.73;101996.91;5213708;28;20421;-40
2022/07/07 01:03:07;;;;;;;7.18;1.80;;;;;;;20.45;53.83;101990.91;5217016;28;20495;-43
2022/07/07 01:05:41;;;;;;;4.40;2.10;;;;;;;20.45;53.97;101989.06;5214697;28;20425;-48
2022/07/07 01:08:15;;;;;;;2.90;1.42;;;;;;;20.39;54.33;101994.34;5221103;28;20909;-44
2022/07/07 01:10:48;;;;;;;5.75;1.90;;;;;;;20.34;54.57;101986.00;5211961;28;20486;-41
2022/07/07 01:13:20;;;;;;;2.78;1.63;;;;;;;20.30;54.78;101984.72;5219241;28;20435;-40
2022/07/07 01:15:54;;;;;;;6.07;2.10;;;;;;;20.27;54.89;101986.75;5217269;28;20952;-42
2022/07/07 01:18:27;;;;;;;7.78;2.40;;;;;;;20.23;55.16;101968.53;5220096;28;20899;-38
2022/07/07 01:21:02;;;;;;;5.75;1.92;;;;;;;20.20;55.21;101964.38;5205701;28;20871;-39
2022/07/07 01:23:36;;;;;;;6.05;1.88;;;;;;;20.10;55.42;101953.13;5209215;28;20914;-39
2022/07/07 01:26:09;;;;;;;6.30;2.08;;;;;;;20.16;55.59;101957.72;5216931;28;20411;-40
2022/07/07 01:28:42;;;;;;;6.68;2.05;;;;;;;20.18;55.60;101950.31;5212717;28;20421;-43
2022/07/07 01:31:15;;;;;;;7.63;2.08;;;;;;;20.18;55.83;101944.13;5219712;28;20463;-40
2022/07/07 01:33:48;;;;;;;12.20;2.53;;;;;;;20.17;55.96;101953.19;5216722;28;20406;-40
2022/07/07 01:36:20;;;;;;;8.55;1.92;;;;;;;20.14;56.15;101946.34;5221747;28;20411;-39
2022/07/07 01:38:54;;;;;;;6.38;2.17;;;;;;;20.02;56.29;101932.56;5218873;28;20411;-40
2022/07/07 01:41:27;;;;;;;5.20;2.05;;;;;;;20.11;56.44;101954.75;5210344;28;20409;-38
2022/07/07 01:44:00;;;;;;;6.38;2.15;;;;;;;20.11;56.41;101944.03;5217339;28;20830;-39
2022/07/07 01:46:33;;;;;;;7.90;3.03;;;;;;;20.12;56.37;101947.53;5217112;28;20407;-39
2022/07/07 01:49:06;;;;;;;10.82;3.08;;;;;;;20.10;56.50;101930.81;5216012;28;20419;-42
2022/07/07 01:51:39;;;;;;;8.52;2.92;;;;;;;20.07;56.47;101929.34;5213196;28;20799;-39
2022/07/07 01:54:13;;;;;;;8.50;2.90;;;;;;;20.02;56.82;101929.88;5213375;28;20481;-39
2022/07/07 01:56:46;;;;;;;10.75;3.15;;;;;;;20.07;56.64;101936.53;5217183;28;20427;-53
2022/07/07 01:59:18;;;;;;;8.93;2.63;;;;;;;20.01;56.73;101925.56;5219028;28;20581;-39
2022/07/07 02:01:51;;;;;;;8.82;3.05;;;;;;;20.00;56.89;101934.59;5212901;28;21394;-40
2022/07/07 02:04:24;;;;;;;10.52;3.40;;;;;;;20.00;56.99;101928.41;5216936;28;20471;-40
2022/07/07 02:06:57;;;;;;;10.90;3.30;;;;;;;19.99;56.89;101934.78;5213626;28;20805;-41
2022/07/07 02:09:31;;;;;;;7.45;2.20;;;;;;;19.91;56.88;101924.97;5211024;28;20492;-41
2022/07/07 02:12:05;;;;;;;10.38;2.28;;;;;;;19.83;57.05;101922.41;5216699;28;20760;-39
2022/07/07 02:14:39;;;;;;;8.60;2.38;;;;;;;19.88;57.08;101932.56;5218827;28;20918;-43
2022/07/07 02:17:12;;;;;;;12.32;2.92;;;;;;;19.91;56.96;101940.25;5224545;28;20410;-40
2022/07/07 02:19:45;;;;;;;8.25;2.30;;;;;;;19.90;56.98;101935.91;5214171;28;20428;-40
2022/07/07 02:22:18;;;;;;;10.03;2.50;;;;;;;19.85;57.00;101939.16;5218508;28;20408;-40
2022/07/07 02:24:52;;;;;;;6.30;2.20;;;;;;;19.75;56.90;101952.78;5215108;28;21417;-41
2022/07/07 02:27:24;;;;;;;7.13;1.75;;;;;;;19.71;56.88;101937.28;5214054;28;20434;-40
2022/07/07 02:29:57;;;;;;;7.53;1.90;;;;;;;19.68;56.85;101948.38;5220331;28;20472;-41
2022/07/07 02:32:30;;;;;;;9.68;2.40;;;;;;;19.63;56.58;101951.53;5210028;28;20415;-40
2022/07/07 02:35:02;;;;;;;5.88;2.03;;;;;;;19.54;56.35;101944.59;5215761;28;20776;-41
2022/07/07 02:37:35;;;;;;;5.43;1.60;;;;;;;19.52;56.28;101949.31;5216949;28;20422;-42
2022/07/07 02:40:12;;;;;;;7.25;1.80;;;;;;;19.57;56.16;101952.28;5212155;28;20431;-41
2022/07/07 02:42:44;;;;;;;9.20;2.77;;;;;;;19.56;56.19;101953.31;5218063;28;20453;-40
2022/07/07 02:45:17;;;;;;;12.10;2.30;;;;;;;19.56;56.01;101955.97;5212750;28;20740;-39
2022/07/07 02:47:50;;;;;;;9.32;1.98;;;;;;;19.49;56.03;101939.81;5211429;28;20761;-42
2022/07/07 02:50:22;;;;;;;11.75;1.98;;;;;;;19.52;56.05;101943.97;5210766;28;20410;-40
2022/07/07 02:52:55;;;;;;;11.02;2.20;;;;;;;19.52;56.07;101946.66;5218054;27;20407;-44
2022/07/07 02:55:30;;;;;;;7.57;1.77;;;;;;;19.46;55.88;101939.34;5212554;28;20408;-45
2022/07/07 02:58:04;;;;;;;8.10;1.80;;;;;;;19.49;56.08;101944.34;5209703;28;20431;-44
2022/07/07 03:00:37;;;;;;;8.77;1.90;;;;;;;19.48;55.88;101948.88;5213410;28;20426;-42
2022/07/07 03:03:10;;;;;;;10.10;2.27;;;;;;;19.48;55.88;101958.72;5214173;28;20892;-40
2022/07/07 03:05:43;;;;;;;7.72;1.60;;;;;;;19.51;55.92;101953.00;5222036;28;20912;-40
2022/07/07 03:08:28;;;;;;;8.57;2.00;;;;;;;19.52;56.03;101943.97;5211659;28;20492;-46
2022/07/07 03:11:02;;;;;;;10.60;1.60;;;;;;;19.50;56.23;101954.03;5217272;28;20477;-40
2022/07/07 03:13:35;;;;;;;5.38;1.85;;;;;;;19.49;56.18;101960.41;5198851;28;20439;-40
2022/07/07 03:16:08;;;;;;;10.00;1.70;;;;;;;19.44;56.54;101957.44;5220348;28;20408;-45
2022/07/07 03:18:40;;;;;;;5.25;1.45;;;;;;;19.44;56.50;101954.75;5219344;28;20422;-41
2022/07/07 03:21:13;;;;;;;7.23;2.20;;;;;;;19.44;56.74;101957.44;5213652;28;20508;-41
2022/07/07 03:23:46;;;;;;;5.55;1.45;;;;;;;19.39;56.82;101960.66;5212231;28;20787;-40
2022/07/07 03:26:20;;;;;;;7.82;1.80;;;;;;;19.35;56.89;101978.94;5216703;28;21230;-46
2022/07/07 03:28:52;;;;;;;6.55;1.75;;;;;;;19.33;56.90;101978.28;5219678;28;20402;-41
2022/07/07 03:31:25;;;;;;;6.57;1.85;;;;;;;19.29;57.10;101982.34;5218340;28;20500;-43
2022/07/07 03:33:58;;;;;;;10.73;1.98;;;;;;;19.26;56.98;101982.72;5178314;28;20408;-47
2022/07/07 03:36:31;;;;;;;8.10;1.90;;;;;;;19.22;56.98;101978.69;5214697;28;20506;-41
2022/07/07 03:39:03;;;;;;;10.85;1.80;;;;;;;19.22;56.93;101981.38;5213636;28;20501;-40
2022/07/07 03:41:37;;;;;;;10.48;2.30;;;;;;;19.18;56.80;102001.50;5217379;28;20511;-45
2022/07/07 03:44:10;;;;;;;10.40;2.35;;;;;;;19.16;56.91;101986.63;5214425;28;20510;-45
2022/07/07 03:46:49;;;;;;;12.18;2.47;;;;;;;19.13;56.91;101990.47;5219198;28;20431;-46
2022/07/07 03:49:22;;;;;;;10.88;2.22;;;;;;;19.06;56.60;102010.94;5212062;28;20407;-41
2022/07/07 03:51:55;;;;;;;11.00;2.20;;;;;;;19.10;56.72;101988.16;5217962;28;20388;-41
2022/07/07 03:54:27;;;;;;;12.30;2.80;;;;;;;19.04;56.63;101986.19;5216350;28;20448;-41
2022/07/07 03:57:01;;;;;;;11.15;2.30;;;;;;;19.09;56.40;101994.53;5216793;28;20417;-39
2022/07/07 03:59:34;;;;;;;9.13;2.53;;;;;;;19.10;56.38;101998.88;5216026;28;20458;-42
2022/07/07 04:02:07;;;;;;;8.43;1.65;;;;;;;19.03;56.42;101992.56;5213796;28;20487;-41
2022/07/07 04:04:40;;;;;;;13.05;3.00;;;;;;;19.05;56.31;101993.22;5215661;28;20426;-43
2022/07/07 04:07:12;;;;;;;11.90;2.60;;;;;;;19.08;56.31;102006.25;5202094;28;20426;-43
2022/07/07 04:09:45;;;;;;;10.55;2.30;;;;;;;19.05;56.22;102007.44;5213091;28;20807;-42
2022/07/07 04:12:19;;;;;;;13.68;2.55;;;;;;;19.06;56.14;102009.09;5215439;28;20414;-42
2022/07/07 04:14:52;;;;;;;14.85;3.03;;;;;;;19.00;56.11;101998.28;5214525;28;20447;-41
2022/07/07 04:17:24;;;;;;;9.57;2.42;;;;;;;19.03;56.18;102008.63;5210514;28;20909;-42
2022/07/07 04:19:58;;;;;;;15.70;2.53;;;;;;;18.38;56.04;101914.28;5219353;28;20418;-52
2022/07/07 04:22:31;;;;;;;23.63;2.63;;;;;;;18.99;56.03;102013.50;5214905;28;20826;-41
2022/07/07 04:25:05;;;;;;;14.73;3.10;;;;;;;18.94;55.95;102009.69;5217641;28;20420;-40
2022/07/07 04:27:39;;;;;;;14.90;3.13;;;;;;;18.96;55.90;102018.38;5219981;28;20403;-40
2022/07/07 04:30:48;;;;;;;11.10;2.47;;;;;;;18.98;55.76;102021.69;5216239;28;20416;-50
2022/07/07 04:33:21;;;;;;;9.23;2.20;;;;;;;19.02;55.51;102033.75;5215893;28;20475;-45
2022/07/07 04:35:53;;;;;;;14.65;3.10;;;;;;;19.01;55.72;102032.88;5214329;28;20415;-41
2022/07/07 04:38:26;;;;;;;11.33;2.37;;;;;;;19.01;55.61;102034.72;5216795;28;20482;-43
2022/07/07 04:40:59;;;;;;;13.45;2.75;;;;;;;18.98;55.61;102037.75;5216575;28;20599;-46
2022/07/07 04:43:33;;;;;;;15.48;2.75;;;;;;;18.97;55.59;102036.09;5213801;28;20425;-43
2022/07/07 04:46:06;;;;;;;15.43;2.95;;;;;;;18.96;55.52;102039.81;5219822;28;20438;-43
2022/07/07 04:48:39;;;;;;;13.52;2.08;;;;;;;18.91;55.38;102034.13;5215660;28;20431;-42
2022/07/07 04:51:11;;;;;;;17.25;3.53;;;;;;;18.94;55.38;102036.47;5219512;28;20422;-45
2022/07/07 04:53:44;;;;;;;10.65;2.83;;;;;;;19.00;55.27;102046.47;5218499;28;20435;-41
2022/07/07 04:56:17;;;;;;;12.10;3.13;;;;;;;19.01;55.20;102045.44;5220675;28;20425;-45
2022/07/07 04:58:51;;;;;;;11.40;2.70;;;;;;;18.99;55.22;102055.50;5218654;28;20403;-41
2022/07/07 05:01:23;;;;;;;11.80;2.72;;;;;;;18.92;54.95;102043.81;5217132;28;20401;-42
2022/07/07 05:03:56;;;;;;;13.77;2.75;;;;;;;18.91;55.19;102051.03;5216088;28;20481;-42
2022/07/07 05:06:29;;;;;;;7.35;2.30;;;;;;;18.85;55.12;102055.22;5217796;28;20416;-40
2022/07/07 05:09:02;;;;;;;13.57;2.83;;;;;;;18.83;55.08;102073.31;5223001;28;20481;-42
2022/07/07 05:11:34;;;;;;;7.55;2.22;;;;;;;18.75;55.08;102065.31;5227719;28;20425;-42
2022/07/07 05:14:09;;;;;;;8.38;2.05;;;;;;;18.59;55.17;102065.34;5223084;28;20908;-42
2022/07/07 05:16:42;;;;;;;9.73;2.38;;;;;;;18.76;54.99;102083.03;5221922;28;20736;-41
2022/07/07 05:19:15;;;;;;;6.20;2.17;;;;;;;18.74;54.87;102078.88;5222410;28;20934;-45
2022/07/07 05:21:47;;;;;;;12.15;2.70;;;;;;;18.82;54.72;102093.03;5219712;28;20416;-42
2022/07/07 05:24:20;;;;;;;8.38;2.22;;;;;;;18.85;54.86;102090.03;5218162;28;20421;-41
2022/07/07 05:26:53;;;;;;;8.73;2.15;;;;;;;19.04;54.60;102091.44;5218006;28;20415;-41
2022/07/07 05:29:27;;;;;;;8.48;1.58;;;;;;;19.06;54.51;102092.09;5218249;28;20492;-41
2022/07/07 05:32:00;;;;;;;9.35;2.10;;;;;;;19.05;54.54;102094.97;5211138;28;20494;-41
2022/07/07 05:34:32;;;;;;;9.20;2.45;;;;;;;19.06;54.42;102102.81;5218538;28;20423;-41
2022/07/07 05:37:06;;;;;;;11.05;1.65;;;;;;;19.36;54.13;102100.31;5222694;28;20435;-43
2022/07/07 05:39:38;;;;;;;8.57;1.70;;;;;;;19.42;53.91;102090.72;5220635;28;20431;-43
2022/07/07 05:42:11;;;;;;;10.30;2.47;;;;;;;19.50;53.90;102120.16;5222526;28;20776;-44
2022/07/07 05:44:45;;;;;;;9.60;2.33;;;;;;;19.44;53.76;102112.81;5217912;28;20897;-42
2022/07/07 05:47:18;;;;;;;11.83;2.10;;;;;;;19.42;53.77;102125.53;5219111;28;21067;-40
2022/07/07 05:49:51;;;;;;;10.93;2.42;;;;;;;19.28;53.65;102132.50;5229645;28;20407;-41
2022/07/07 05:52:24;;;;;;;8.07;1.83;;;;;;;19.13;53.82;102137.75;5227807;28;20416;-40
2022/07/07 05:54:57;;;;;;;5.78;1.63;;;;;;;19.01;53.89;102137.31;5214264;28;20754;-41
2022/07/07 05:57:30;;;;;;;6.10;1.67;;;;;;;18.95;54.03;102132.63;5214123;28;20422;-40
2022/07/07 06:00:06;;;;;;;6.72;1.20;;;;;;;18.97;54.08;102117.25;5228064;28;20911;-43
2022/07/07 06:02:39;;;;;;;4.50;1.58;;;;;;;19.16;53.97;102140.09;5224158;28;20419;-45
2022/07/07 06:05:11;;;;;;;8.30;1.33;;;;;;;19.79;53.56;102141.75;5222546;28;20518;-43
2022/07/07 06:07:44;;;;;;;8.87;1.90;;;;;;;20.02;53.21;102143.59;5227643;28;20416;-40
2022/07/07 06:10:17;;;;;;;11.07;2.00;;;;;;;19.98;53.28;102143.13;5229071;27;20908;-41
2022/07/07 06:12:49;;;;;;;5.70;1.50;;;;;;;19.99;53.07;102149.31;5223995;28;20430;-40
2022/07/07 06:15:27;;;;;;;9.15;1.63;;;;;;;19.65;53.05;102115.72;5212187;28;20420;-41
2022/07/07 06:18:01;;;;;;;7.20;2.20;;;;;;;19.68;53.35;102160.94;5213417;28;20530;-42
2022/07/07 06:20:34;;;;;;;7.00;1.95;;;;;;;19.55;53.37;102176.72;5212883;28;20421;-41
2022/07/07 06:23:07;;;;;;;8.80;2.03;;;;;;;19.34;53.52;102140.66;5208118;28;20507;-42
2022/07/07 06:25:40;;;;;;;6.88;2.33;;;;;;;19.51;53.37;102167.34;5211334;28;20853;-41
2022/07/07 06:28:12;;;;;;;11.93;2.40;;;;;;;19.51;53.32;102167.34;5211147;28;20421;-41
2022/07/07 06:30:46;;;;;;;10.33;2.93;;;;;;;19.48;53.25;102175.75;5210530;28;20433;-40
2022/07/07 06:33:19;;;;;;;9.65;2.28;;;;;;;19.30;53.29;102158.09;5224450;28;20894;-42
2022/07/07 06:35:52;;;;;;;11.07;2.60;;;;;;;19.53;53.27;102179.56;5226210;28;20388;-41
2022/07/07 06:38:25;;;;;;;11.50;2.65;;;;;;;19.55;53.20;102180.25;5227198;28;20435;-43
2022/07/07 06:40:59;;;;;;;11.40;2.60;;;;;;;19.61;53.16;102168.00;5219402;28;20833;-41
2022/07/07 06:43:32;;;;;;;6.32;1.88;;;;;;;19.69;53.38;102177.84;5225189;28;20473;-41
2022/07/07 06:46:06;;;;;;;5.60;1.30;;;;;;;19.87;53.14;102183.75;5227117;28;20419;-40
2022/07/07 06:48:39;;;;;;;4.53;1.10;;;;;;;20.59;52.71;102182.50;5225383;28;20430;-43
2022/07/07 06:51:12;;;;;;;3.60;1.00;;;;;;;22.16;51.35;102169.50;5223897;28;20831;-41
2022/07/07 06:53:44;;;;;;;3.03;0.70;;;;;;;23.27;49.99;102185.78;5220038;28;20416;-45
2022/07/07 06:56:17;;;;;;;3.67;1.10;;;;;;;23.98;48.98;102198.88;5224189;28;20413;-43
2022/07/07 06:58:50;;;;;;;8.07;1.17;;;;;;;23.88;48.77;102188.47;5223118;28;20408;-42
2022/07/07 07:01:24;;;;;;;4.63;0.90;;;;;;;23.46;49.12;102199.31;5223972;28;20888;-41
2022/07/07 07:03:57;;;;;;;6.78;1.60;;;;;;;23.75;49.05;102186.56;5215272;28;20420;-42
2022/07/07 07:06:30;;;;;;;4.90;1.25;;;;;;;24.44;48.23;102195.38;5223797;28;20430;-45
2022/07/07 07:09:03;;;;;;;5.97;1.55;;;;;;;25.80;46.93;102194.47;5217715;28;20419;-44
2022/07/07 07:11:36;;;;;;;6.05;1.50;;;;;;;26.16;45.96;102200.06;5224343;28;20891;-43
2022/07/07 07:14:09;;;;;;;8.82;1.60;;;;;;;25.40;46.35;102200.13;5228065;28;20690;-45
2022/07/07 07:16:43;;;;;;;6.55;1.33;;;;;;;24.51;46.98;102217.81;5225987;28;20407;-43
2022/07/07 07:19:16;;;;;;;8.05;1.67;;;;;;;23.74;47.36;102222.69;5224869;28;20795;-41
2022/07/07 07:21:48;;;;;;;6.35;1.27;;;;;;;23.11;47.82;102224.69;5224654;28;20416;-42
2022/07/07 07:24:21;;;;;;;9.38;1.55;;;;;;;22.77;48.19;102210.16;5220681;28;20486;-42
2022/07/07 07:26:54;;;;;;;5.00;1.38;;;;;;;22.77;48.48;102220.94;5225005;28;20415;-42
2022/07/07 07:29:26;;;;;;;6.70;1.90;;;;;;;22.65;48.21;102227.91;5217373;28;20401;-46
2022/07/07 07:32:00;;;;;;;8.02;1.70;;;;;;;22.38;48.46;102238.44;5221364;28;20429;-43
2022/07/07 07:34:33;;;;;;;4.57;1.25;;;;;;;22.04;48.53;102231.88;5225925;28;20400;-45
2022/07/07 07:37:06;;;;;;;4.40;1.20;;;;;;;21.67;48.66;102232.13;5222344;28;20424;-43
2022/07/07 07:39:39;;;;;;;4.03;1.20;;;;;;;21.22;48.78;102196.41;5215915;28;20456;-44
2022/07/07 07:42:11;;;;;;;8.80;1.30;;;;;;;21.42;49.05;102244.03;5216265;28;20446;-43
2022/07/07 07:47:36;;;;;;;3.75;0.80;;;;;;;22.41;48.25;102238.06;5199003;28;20409;-42
2022/07/07 07:50:11;;;;;;;6.88;1.05;;;;;;;22.61;47.88;102242.75;5210634;28;20516;-48
2022/07/07 07:52:46;;;;;;;3.63;1.00;;;;;;;22.65;47.89;102230.59;5205363;28;20589;-42
2022/07/07 07:55:21;;;;;;;4.13;1.08;;;;;;;22.53;47.91;102243.75;5207332;28;20451;-41
2022/07/07 07:57:54;;;;;;;5.20;1.08;;;;;;;22.42;47.94;102244.28;5210501;28;20503;-42
2022/07/07 08:00:27;;;;;;;7.45;1.67;;;;;;;22.31;47.94;102232.19;5207805;28;20413;-41
2022/07/07 08:03:01;;;;;;;6.93;1.42;;;;;;;22.26;47.99;102232.75;5204569;28;20478;-43
2022/07/07 08:05:34;;;;;;;6.95;1.52;;;;;;;22.03;47.97;102234.78;5212060;28;20443;-43
2022/07/07 08:08:07;;;;;;;6.07;1.67;;;;;;;21.86;48.07;102255.69;5211263;28;20784;-42
2022/07/07 08:10:40;;;;;;;5.82;1.13;;;;;;;21.62;48.22;102251.50;5225859;28;20456;-43
2022/07/07 08:13:12;;;;;;;5.80;1.30;;;;;;;21.48;48.53;102258.56;5221204;28;20483;-42
2022/07/07 08:15:45;;;;;;;6.10;1.20;;;;;;;21.66;48.55;102271.63;5207498;28;20443;-43
2022/07/07 08:18:19;;;;;;;4.70;1.05;;;;;;;22.04;48.14;102258.78;5210705;28;20768;-46
2022/07/07 08:20:52;;;;;;;4.10;1.17;;;;;;;22.26;47.81;102264.22;5207900;28;20482;-41
2022/07/07 08:23:25;;;;;;;5.63;1.60;;;;;;;22.30;47.81;102263.66;5208627;28;20454;-41
2022/07/07 08:25:57;;;;;;;5.77;1.50;;;;;;;22.52;47.32;102251.00;5206184;28;20420;-41
2022/07/07 08:28:30;;;;;;;6.63;1.48;;;;;;;22.69;47.35;102261.47;5203793;28;20425;-43
2022/07/07 08:31:03;;;;;;;8.68;1.35;;;;;;;22.76;47.30;102256.97;5207972;28;20406;-45
2022/07/07 08:33:37;;;;;;;6.05;1.50;;;;;;;22.85;47.23;102271.94;5205100;28;20842;-42
2022/07/07 08:36:10;;;;;;;11.23;2.10;;;;;;;22.83;47.18;102282.09;5203305;28;20483;-44
2022/07/07 08:38:43;;;;;;;9.25;2.15;;;;;;;22.68;47.29;102267.91;5206119;28;20771;-45
2022/07/07 08:41:18;;;;;;;7.28;1.40;;;;;;;22.70;47.24;102271.22;5205412;28;20422;-42
2022/07/07 08:43:51;;;;;;;5.97;1.40;;;;;;;22.85;47.45;102284.59;5208662;28;20913;-41
2022/07/07 08:46:24;;;;;;;4.27;1.10;;;;;;;23.09;47.27;102300.34;5207593;28;20504;-41
2022/07/07 08:48:58;;;;;;;5.50;1.58;;;;;;;23.27;47.18;102272.88;5209276;28;20417;-42
2022/07/07 08:51:31;;;;;;;7.93;1.63;;;;;;;23.59;46.77;102298.31;5200546;28;20556;-44
2022/07/07 08:54:05;;;;;;;9.98;1.90;;;;;;;23.57;46.79;102296.84;5206375;28;20833;-43
2022/07/07 08:56:39;;;;;;;9.85;2.40;;;;;;;23.40;46.90;102297.19;5208762;28;20428;-42
2022/07/07 08:59:14;;;;;;;8.80;2.22;;;;;;;23.05;47.02;102290.16;5206053;28;20413;-42
2022/07/07 09:01:56;;;;;;;8.65;2.20;;;;;;;22.84;47.47;102307.19;5203125;28;20514;-47
2022/07/07 09:04:30;;;;;;;9.70;2.00;;;;;;;22.72;47.46;102331.09;5205208;28;20439;-42
2022/07/07 09:07:06;;;;;;;8.88;2.22;;;;;;;22.60;47.67;102316.50;5200947;28;20414;-43
2022/07/07 09:09:42;;;;;;;10.75;2.20;;;;;;;22.47;47.73;102317.22;5209432;28;20409;-48
2022/07/07 09:12:17;;;;;;;7.97;1.92;;;;;;;22.42;47.99;102320.50;5211205;28;20417;-42
2022/07/07 09:14:52;;;;;;;6.53;1.70;;;;;;;22.49;47.96;102337.53;5208018;28;20933;-43
2022/07/07 09:17:31;;;;;;;8.75;2.25;;;;;;;22.40;47.86;102338.69;5212807;28;20430;-43
2022/07/07 09:20:09;;;;;;;10.32;2.47;;;;;;;22.29;48.07;102320.34;5206995;28;20568;-45
2022/07/07 09:22:48;;;;;;;7.25;2.22;;;;;;;22.14;48.29;102343.75;5211165;28;20413;-44
2022/07/07 09:25:23;;;;;;;10.20;2.10;;;;;;;22.08;48.30;102348.88;5207718;28;20544;-54
2022/07/07 09:28:00;;;;;;;9.60;2.70;;;;;;;22.09;48.24;102344.34;5204353;28;20667;-53
2022/07/07 09:30:36;;;;;;;7.70;2.15;;;;;;;21.87;48.34;102308.50;5201077;28;20510;-43
2022/07/07 09:33:11;;;;;;;7.35;1.60;;;;;;;22.14;48.43;102360.72;5215931;28;20936;-43
2022/07/07 09:38:39;;;;;;;7.20;1.58;;;;;;;22.54;48.15;102366.56;5163674;28;20432;-44
2022/07/07 09:41:14;;;;;;;7.72;1.80;;;;;;;22.75;47.92;102360.34;5166706;28;20425;-42
2022/07/07 09:43:51;;;;;;;9.13;1.80;;;;;;;22.81;47.66;102373.03;5168355;28;20483;-48
2022/07/07 09:46:25;;;;;;;6.68;1.63;;;;;;;22.64;47.85;102387.78;5167678;28;20431;-42
2022/07/07 09:49:00;;;;;;;8.43;2.10;;;;;;;22.37;48.26;102392.91;5166816;28;20527;-45
2022/07/07 09:51:35;;;;;;;9.02;2.03;;;;;;;22.17;48.18;102410.69;5160046;28;20932;-45
2022/07/07 09:54:12;;;;;;;6.85;2.10;;;;;;;21.59;48.36;102362.13;5163443;28;20826;-44
2022/07/07 09:56:46;;;;;;;6.38;1.90;;;;;;;21.84;48.45;102413.75;5162721;28;20439;-45
2022/07/07 09:59:21;;;;;;;7.07;1.40;;;;;;;21.76;48.82;102395.03;5161087;28;20581;-44
2022/07/07 10:01:53;;;;;;;5.15;1.48;;;;;;;22.02;48.66;102416.03;5167651;28;20489;-44
2022/07/07 10:04:27;;;;;;;5.15;1.67;;;;;;;22.33;48.21;102422.06;5168122;28;20427;-47
2022/07/07 10:07:02;;;;;;;6.55;1.42;;;;;;;22.58;47.99;102388.56;5168584;28;20498;-48
2022/07/07 10:09:35;;;;;;;9.15;1.38;;;;;;;22.88;47.65;102413.50;5172729;28;20409;-44
2022/07/07 10:12:08;;;;;;;6.85;1.40;;;;;;;22.82;47.70;102436.66;5172338;28;21020;-42
2022/07/07 10:14:45;;;;;;;6.78;1.30;;;;;;;22.53;47.74;102441.13;5179434;28;20425;-42
2022/07/07 10:17:20;;;;;;;7.28;1.60;;;;;;;22.25;48.10;102448.25;5179456;28;20875;-49
2022/07/07 10:19:53;;;;;;;6.35;1.98;;;;;;;22.00;48.20;102453.91;5172976;28;20489;-43
2022/07/07 10:22:29;;;;;;;5.80;1.80;;;;;;;21.81;48.63;102462.53;5174348;28;20458;-42
2022/07/07 10:25:06;;;;;;;4.85;2.10;;;;;;;21.71;48.98;102456.56;5174398;28;20469;-41
2022/07/07 10:27:42;;;;;;;9.77;2.33;;;;;;;21.77;49.05;102469.28;5174123;28;20510;-44
2022/07/07 10:30:31;;;;;;;5.70;1.75;;;;;;;21.73;49.22;102476.88;5175272;28;20467;-42
2022/07/07 10:33:06;;;;;;;8.50;1.97;;;;;;;21.48;49.67;102497.81;5162355;28;20994;-42
2022/07/07 10:35:43;;;;;;;6.18;1.35;;;;;;;21.36;49.56;102504.63;5169788;28;20471;-42
2022/07/07 10:38:19;;;;;;;9.70;2.63;;;;;;;21.22;49.68;102500.03;5210459;28;20465;-44
2022/07/07 10:40:54;;;;;;;9.05;2.20;;;;;;;21.07;49.88;102513.41;5211105;28;20537;-41
2022/07/07 10:43:33;;;;;;;10.07;2.70;;;;;;;21.05;49.93;102516.25;5208737;28;20772;-43
2022/07/07 10:46:10;;;;;;;12.90;3.63;;;;;;;21.11;50.08;102520.91;5209203;28;20881;-42
2022/07/07 10:48:45;;;;;;;12.07;2.85;;;;;;;21.12;50.03;102521.72;5215335;28;20561;-58
2022/07/07 10:51:21;;;;;;;14.57;2.90;;;;;;;21.28;50.17;102520.81;5218009;28;20452;-61
2022/07/07 10:54:02;;;;;;;14.30;2.67;;;;;;;21.41;50.24;102521.06;5211256;28;20450;-55
2022/07/07 10:57:15;;;;;;;12.35;3.20;;;;;;;21.69;49.94;102525.84;5206814;28;20481;-57
2022/07/07 11:00:18;;;;;;;16.97;3.10;;;;;;;22.05;49.50;102526.84;5209474;28;20531;-57
2022/07/07 11:02:53;;;;;;;11.25;2.90;;;;;;;22.31;49.27;102529.09;5205857;28;20461;-55
2022/07/07 11:05:36;;;;;;;13.00;2.80;;;;;;;22.53;49.03;102532.69;5198426;28;20454;-52
2022/07/07 11:08:18;;;;;;;10.48;2.60;;;;;;;22.51;48.85;102537.41;5205390;28;24592;-54
2022/07/07 11:10:57;;;;;;;14.35;3.08;;;;;;;22.43;48.93;102547.47;5209926;28;20438;-53
2022/07/07 11:13:35;;;;;;;13.07;3.05;;;;;;;22.25;48.82;102551.34;5199216;28;20401;-51
2022/07/07 11:16:20;;;;;;;13.45;3.08;;;;;;;22.28;48.74;102566.31;5206569;28;20432;-55
2022/07/07 11:19:03;;;;;;;13.18;3.83;;;;;;;22.24;48.51;102555.06;5206082;28;20901;-54
2022/07/07 11:21:43;;;;;;;10.63;2.70;;;;;;;22.36;48.35;102563.53;5210165;28;20420;-54
2022/07/07 11:24:21;;;;;;;12.27;2.60;;;;;;;22.42;48.06;102562.78;5207750;28;20809;-56
2022/07/07 11:27:04;;;;;;;8.23;2.70;;;;;;;22.57;47.67;102562.75;5207182;28;20433;-55
2022/07/07 11:29:36;;;;;;;9.02;2.10;;;;;;;22.48;47.55;102556.66;5200112;28;20478;-55
2022/07/07 11:32:10;;;;;;;8.30;2.20;;;;;;;22.61;47.27;102556.00;5206984;28;20509;-52
2022/07/07 11:34:49;;;;;;;10.73;2.70;;;;;;;22.72;47.04;102579.72;5208457;28;20462;-54
2022/07/07 11:37:31;;;;;;;13.15;2.30;;;;;;;22.73;47.01;102575.16;5212798;28;20464;-54
2022/07/07 11:40:04;;;;;;;9.45;2.58;;;;;;;22.82;46.70;102574.03;5199661;28;20417;-56
2022/07/07 11:42:39;;;;;;;13.00;2.90;;;;;;;22.93;46.47;102592.41;5210916;28;20417;-53
2022/07/07 11:45:21;;;;;;;12.48;3.00;;;;;;;22.87;46.31;102589.66;5208161;28;20417;-53
2022/07/07 11:47:56;;;;;;;13.23;3.00;;;;;;;23.06;46.06;102585.53;5229064;27;20489;-55
2022/07/07 11:50:31;;;;;;;11.45;3.17;;;;;;;23.18;45.80;102601.03;5213635;28;20412;-56
2022/07/07 11:53:06;;;;;;;8.95;2.53;;;;;;;23.24;45.30;102599.44;5205237;28;20549;-53
2022/07/07 11:55:39;;;;;;;10.27;2.83;;;;;;;23.30;45.21;102603.22;5218514;28;20412;-53
2022/07/07 11:58:13;;;;;;;10.75;2.83;;;;;;;23.32;45.12;102612.81;5213013;28;20421;-56
2022/07/07 12:00:46;;;;;;;12.02;2.92;;;;;;;23.29;44.88;102618.56;5213620;28;20424;-55